Nearby METAR Reports

(scroll for additional cities)

KPSP - Palm Springs, California, USA
Distance from station: WNW 7mi, 11km
Updated: Sat, 18-Nov-2017 11:53pm PST
Clear
Clear
 Wind from WNW
Wind: WNW 3 mph , 6 km/h
Temperature: 64°F , 18°C
Dew Point: 19°F , -7°C
Humidity: 18%
Barometer: 30.14 inHg , 1020.7 hPa
Clouds: Clear
Visibility: 10 miles , 16 km
2017/11/19 07:53 KPSP 190753Z 29003KT 10SM CLR 18/M07 A3014 RMK AO2 SLP204 T01781067 402670161
KTRM - Thermal/Palm Spg, California, USA
Distance from station: SE 16mi, 26km
Updated: Sat, 18-Nov-2017 11:52pm PST
Clear
Clear
 Wind from NNE
Wind: NNE 5 mph , 7 km/h
Temperature: 48°F , 9°C
Wind Chill: 46°F , 8°C
Dew Point: 30°F , -1°C
Humidity: 50%
Barometer: 30.10 inHg , 1019.3 hPa
Clouds: Clear
Visibility: 10 miles , 16 km
2017/11/19 07:52 KTRM 190752Z AUTO 02004KT 10SM CLR 09/M01 A3010 RMK AO2 SLP193 T00941011 402720078
 
KNXP - Twentynine Palms, California, USA
Distance from station: NNE 37mi, 60km
Updated: Sat, 18-Nov-2017 11:56pm PST
Clear
Clear
 Wind from W
Wind: W 9 mph , 15 km/h
Temperature: 46°F , 8°C
Wind Chill: 41°F , 5°C
Dew Point: 5°F , -15°C
Humidity: 18%
Barometer: 30.26 inHg , 1024.7 hPa
Clouds: Clear
Visibility: 10 miles , 16 km
2017/11/19 07:56 KNXP 190756Z AUTO 27008KT 10SM CLR 08/M15 A3026 RMK AO2 SLP226 T00831150 402000078
KL35 - Big Bear City, California, USA
Distance from station: NW 43mi, 69km
Updated: Sat, 18-Nov-2017 11:55pm PST
Clear
Clear
 Wind from calm
Wind: Calm
Temperature: 21°F , -6°C
Dew Point: -6°F , -21°C
Humidity: 30%
Barometer: 30.27 inHg , 1025.1 hPa
Clouds: Clear
Visibility: 10 miles , 16 km
2017/11/19 07:55 KL35 190755Z AUTO 00000KT 10SM CLR M06/M21 A3027 RMK AO2
 
KF70 - Murrieta/Temecula, California, USA
Distance from station: WSW 45mi, 73km
Updated: Sat, 18-Nov-2017 11:55pm PST
Clear
Clear
 Wind from NE
Wind: NE 7 mph , 11 km/h
Temperature: 52°F , 11°C
Dew Point: 27°F , -3°C
Humidity: 38%
Barometer: 30.12 inHg , 1020 hPa
Clouds: Clear
Visibility: 10 miles , 16 km
2017/11/19 07:55 KF70 190755Z AUTO 04006KT 10SM CLR 11/M03 A3012 RMK AO1
KRIV - Riverside/March, California, USA
Distance from station: W 51mi, 82km
Updated: Sat, 18-Nov-2017 11:58pm PST
Clear
Clear
 Wind from NE
Wind: NE 3 mph , 6 km/h
Temperature: 46°F , 8°C
Dew Point: 21°F , -6°C
Humidity: 37%
Barometer: 30.12 inHg , 1020 hPa
Clouds: Clear
Visibility: 10 miles , 16 km
2017/11/19 07:58 KRIV 190758Z AUTO 04003KT 10SM CLR 08/M06 A3012 RMK AO2 SLP194 T00771061 402500061
 
KSBD - San Bernardino, California, USA
Distance from station: WNW 54mi, 86km
Updated: Sat, 18-Nov-2017 11:59pm PST
Clear
Clear
 Wind from ENE
Wind: ENE 3 mph , 6 km/h
Temperature: 52°F , 11°C
Dew Point: 25°F , -4°C
Humidity: 35%
Barometer: 30.13 inHg , 1020.3 hPa
Clouds: Clear
Visibility: 10 miles , 16 km
2017/11/19 07:59 KSBD 190759Z AUTO 06003KT 10SM CLR 11/M04 A3013 RMK AO2 T01121043
KRNM - Ramona, California, USA
Distance from station: SSW 60mi, 96km
Updated: Sat, 18-Nov-2017 11:53pm PST

 
Barometer: 30.10 inHg , 1019.3 hPa
2017/11/19 07:53 KRNM 190753Z AUTO A3010 RMK AO2 SLPNO PWINO
 
KRAL - Riverside, California, USA
Distance from station: W 62mi, 100km
Updated: Sat, 18-Nov-2017 11:53pm PST
Clear
Clear
 Wind from ENE
Wind: ENE 8 mph , 13 km/h
Temperature: 61°F , 16°C
Dew Point: 19°F , -7°C
Humidity: 20%
Barometer: 30.10 inHg , 1019.3 hPa
Clouds: Clear
Visibility: 10 miles , 16 km
2017/11/19 07:53 KRAL 190753Z AUTO 07007KT 10SM CLR 16/M07 A3010 RMK AO2 SLP179 T01611067 402610111
KOKB - Oceanside, California, USA
Distance from station: SW 68mi, 109km
Updated: Sun, 19-Nov-2017 12:00am PST
Mist, Clear
Mist, Clear
 Wind from W
Wind: W 3 mph , 6 km/h
Temperature: 46°F , 8°C
Dew Point: 46°F , 8°C
Humidity: 100%
Barometer: 30.08 inHg , 1018.6 hPa
Summary: Mist
Clouds: Clear
Visibility: 5 miles , 8 km
2017/11/19 08:00 KOKB 190800Z AUTO 26003KT 5SM BR CLR 08/08 A3008 RMK AO2 T00780078
 
KONT - Ontario, California, USA
Distance from station: WNW 71mi, 114km
Updated: Sat, 18-Nov-2017 11:53pm PST
Clear
Clear
 Wind from calm
Wind: Calm
Temperature: 54°F , 12°C
Dew Point: 34°F , 1°C
Humidity: 47%
Barometer: 30.10 inHg , 1019.3 hPa
Clouds: Clear
Visibility: 10 miles , 16 km
2017/11/19 07:53 KONT 190753Z 00000KT 10SM CLR 12/01 A3010 RMK AO2 SLP184 T01220011 402610106 $
KNJK - El Centro Naf, California, USA
Distance from station: SSE 78mi, 126km
Updated: Sat, 18-Nov-2017 11:56pm PST
Clear
Clear
 Wind from WNW
Wind: WNW 9 mph , 15 km/h
Temperature: 50°F , 10°C
Wind Chill: 46°F , 8°C
Dew Point: 25°F , -4°C
Humidity: 37%
Barometer: 30.12 inHg , 1020 hPa
Clouds: Clear
Visibility: 10 miles , 16 km
2017/11/19 07:56 KNJK 190756Z AUTO 29008KT 10SM CLR 10/M04 A3012 RMK AO2 SLP214 T01001044 402610094
 
KSEE - San Diego/Santee, California, USA
Distance from station: SSW 74mi, 120km
Updated: Sat, 18-Nov-2017 11:50pm PST
Clear
Clear
 Wind from W
Wind: W 5 mph , 7 km/h
Temperature: 52°F , 11°C
Dew Point: 46°F , 8°C
Humidity: 82%
Barometer: 30.08 inHg , 1018.6 hPa
Clouds: Clear
Visibility: 10 miles , 16 km
2017/11/19 07:50 KSEE 190750Z AUTO 27004KT 10SM CLR 11/08 A3008 RMK AO2
KCNO - Chino, California, USA
Distance from station: W 72mi, 116km
Updated: Sat, 18-Nov-2017 11:53pm PST
Clear
Clear
 Wind from ENE
Wind: ENE 3 mph , 6 km/h
Temperature: 57°F , 14°C
Dew Point: 28°F , -2°C
Humidity: 33%
Barometer: 30.11 inHg , 1019.6 hPa
Clouds: Clear
Visibility: 9 miles , 14 km
2017/11/19 07:53 KCNO 190753Z AUTO 07003KT 9SM CLR 14/M02 A3011 RMK AO2 SLP191 T01441022 402720094